createdAt,value
2022-11-27T00:01:21.587Z,102491.31
2022-11-27T00:03:49.018Z,102493.53
2022-11-27T00:06:17.793Z,102484.31
2022-11-27T00:08:45.175Z,102488.16
2022-11-27T00:11:18.297Z,102492.94
2022-11-27T00:13:45.293Z,102497.72
2022-11-27T00:16:13.254Z,102498.09
2022-11-27T00:18:43.321Z,102505.47
2022-11-27T00:21:19.150Z,102508.47
2022-11-27T00:23:45.845Z,102508.00
2022-11-27T00:26:12.858Z,102508.28
2022-11-27T00:28:39.575Z,102509.59
2022-11-27T00:31:09.066Z,102510.69
2022-11-27T00:33:35.712Z,102510.94
2022-11-27T00:36:06.444Z,102520.13
2022-11-27T00:38:38.455Z,102520.22
2022-11-27T00:41:17.793Z,102518.50
2022-11-27T00:43:45.437Z,102514.38
2022-11-27T00:46:16.924Z,102526.81
2022-11-27T00:48:43.624Z,102525.94
2022-11-27T00:51:14.083Z,102524.22
2022-11-27T00:53:40.691Z,102531.34
2022-11-27T00:56:08.176Z,102528.09
2022-11-27T00:58:34.725Z,102530.75
2022-11-27T01:01:03.816Z,102528.19
2022-11-27T01:03:31.682Z,102523.88
2022-11-27T01:06:06.062Z,102526.63
2022-11-27T01:08:33.813Z,102519.66
2022-11-27T01:11:00.777Z,102515.44
2022-11-27T01:13:32.626Z,102509.34
2022-11-27T01:16:06.290Z,102521.13
2022-11-27T01:18:34.314Z,102524.72
2022-11-27T01:21:00.784Z,102526.50
2022-11-27T01:23:27.598Z,102519.47
2022-11-27T01:25:54.639Z,102514.25
2022-11-27T01:28:23.432Z,102512.53
2022-11-27T01:30:50.950Z,102502.84
2022-11-27T01:33:18.212Z,102499.41
2022-11-27T01:35:55.078Z,102498.53
2022-11-27T01:38:22.173Z,102499.47
2022-11-27T01:40:48.809Z,102495.09
2022-11-27T01:43:16.206Z,102486.47
2022-11-27T01:45:45.256Z,102493.38
2022-11-27T01:48:13.432Z,102474.91
2022-11-27T01:50:40.550Z,102468.88
2022-11-27T01:53:15.687Z,102469.91
2022-11-27T01:55:54.996Z,102482.41
2022-11-27T01:58:28.147Z,102471.06
2022-11-27T02:00:54.885Z,102476.66
2022-11-27T02:03:22.080Z,102475.03
2022-11-27T02:05:48.631Z,102474.31
2022-11-27T02:08:16.839Z,102470.09
2022-11-27T02:11:07.823Z,102475.50
2022-11-27T02:13:50.294Z,102482.84
2022-11-27T02:16:19.722Z,102469.81
2022-11-27T02:19:15.554Z,102473.63
2022-11-27T02:22:02.286Z,102464.13
2022-11-27T02:24:56.558Z,102468.75
2022-11-27T02:27:41.459Z,102462.72
2022-11-27T02:30:08.430Z,102458.69
2022-11-27T02:32:37.809Z,102457.91
2022-11-27T02:35:27.876Z,102465.09
2022-11-27T02:38:00.928Z,102451.88
2022-11-27T02:40:34.701Z,102445.09
2022-11-27T02:43:08.916Z,102457.34
2022-11-27T02:45:43.270Z,102456.66
2022-11-27T02:48:12.192Z,102463.06
2022-11-27T02:50:41.541Z,102461.41
2022-11-27T02:53:12.681Z,102472.25
2022-11-27T02:55:40.560Z,102466.31
2022-11-27T02:58:11.898Z,102457.75
2022-11-27T03:00:43.285Z,102461.63
2022-11-27T03:03:13.103Z,102451.28
2022-11-27T03:05:43.517Z,102460.31
2022-11-27T03:08:18.995Z,102465.84
2022-11-27T03:10:51.608Z,102464.31
2022-11-27T03:13:18.509Z,102460.13
2022-11-27T03:16:01.043Z,102459.50
2022-11-27T03:18:42.887Z,102472.88
2022-11-27T03:21:29.544Z,102463.41
2022-11-27T03:23:57.520Z,102468.19
2022-11-27T03:26:24.081Z,102469.31
2022-11-27T03:28:51.824Z,102453.94
2022-11-27T03:31:20.443Z,102462.91
2022-11-27T03:33:47.270Z,102458.78
2022-11-27T03:36:19.362Z,102455.47
2022-11-27T03:38:48.902Z,102458.53
2022-11-27T03:41:52.804Z,102453.38
2022-11-27T03:44:35.706Z,102447.53
2022-11-27T03:47:11.207Z,102440.91
2022-11-27T03:49:57.856Z,102438.53
2022-11-27T03:52:32.846Z,102439.50
2022-11-27T03:55:15.120Z,102436.25
2022-11-27T03:58:19.180Z,102428.50
2022-11-27T04:00:49.125Z,102416.75
2022-11-27T04:03:24.076Z,102432.56
2022-11-27T04:05:50.796Z,102435.34
2022-11-27T04:08:17.605Z,102429.38
2022-11-27T04:10:44.216Z,102435.59
2022-11-27T04:13:10.851Z,102438.34
2022-11-27T04:15:37.274Z,102431.25
2022-11-27T04:18:03.827Z,102432.03
2022-11-27T04:20:30.419Z,102433.69
2022-11-27T04:22:56.841Z,102442.34
2022-11-27T04:25:23.503Z,102437.78
2022-11-27T04:27:50.488Z,102438.34
2022-11-27T04:30:17.832Z,102429.50
2022-11-27T04:32:44.253Z,102432.88
2022-11-27T04:35:11.433Z,102431.06
2022-11-27T04:37:37.832Z,102438.09
2022-11-27T04:40:05.436Z,102438.94
2022-11-27T04:42:31.891Z,102429.16
2022-11-27T04:44:58.425Z,102423.84
2022-11-27T04:47:24.980Z,102430.00
2022-11-27T04:49:51.381Z,102414.25
2022-11-27T04:52:17.881Z,102413.19
2022-11-27T04:54:44.296Z,102406.06
2022-11-27T04:57:10.764Z,102387.53
2022-11-27T04:59:37.993Z,102396.16
2022-11-27T05:02:04.750Z,102385.41
2022-11-27T05:04:31.201Z,102388.84
2022-11-27T05:06:57.647Z,102382.56
2022-11-27T05:09:24.138Z,102379.84
2022-11-27T05:11:50.656Z,102373.56
2022-11-27T05:14:18.028Z,102369.03
2022-11-27T05:16:47.162Z,102361.88
2022-11-27T05:19:14.366Z,102362.66
2022-11-27T05:21:41.777Z,102356.44
2022-11-27T05:24:11.170Z,102347.41
2022-11-27T05:26:39.571Z,102336.66
2022-11-27T05:29:07.630Z,102334.63
2022-11-27T05:31:34.630Z,102346.88
2022-11-27T05:34:01.494Z,102346.75
2022-11-27T05:36:28.546Z,102342.31
2022-11-27T05:38:54.985Z,102336.97
2022-11-27T05:41:21.611Z,102339.53
2022-11-27T05:43:48.212Z,102321.25
2022-11-27T05:46:19.925Z,102335.84
2022-11-27T05:48:46.435Z,102329.88
2022-11-27T05:51:13.573Z,102338.44
2022-11-27T05:53:40.132Z,102336.56
2022-11-27T05:56:15.376Z,102342.56
2022-11-27T05:58:43.687Z,102345.28
2022-11-27T06:01:12.517Z,102346.22
2022-11-27T06:03:39.186Z,102362.13
2022-11-27T06:06:09.953Z,102360.56
2022-11-27T06:08:37.642Z,102364.78
2022-11-27T06:11:15.802Z,102363.84
2022-11-27T06:13:42.833Z,102365.72
2022-11-27T06:16:13.931Z,102365.78
2022-11-27T06:18:43.378Z,102361.66
2022-11-27T06:21:14.676Z,102363.22
2022-11-27T06:23:42.718Z,102365.09
2022-11-27T06:26:17.336Z,102362.59
2022-11-27T06:28:44.737Z,102355.66
2022-11-27T06:31:17.875Z,102342.44
2022-11-27T06:33:46.141Z,102336.56
2022-11-27T06:36:12.700Z,102331.38
2022-11-27T06:38:39.322Z,102333.38
2022-11-27T06:41:09.193Z,102332.00
2022-11-27T06:43:36.407Z,102327.81
2022-11-27T06:46:04.524Z,102320.28
2022-11-27T06:48:32.731Z,102334.47
2022-11-27T06:51:04.658Z,102333.84
2022-11-27T06:53:34.321Z,102341.06
2022-11-27T06:56:06.645Z,102335.03
2022-11-27T06:58:33.088Z,102331.84
2022-11-27T07:01:02.105Z,102338.13
2022-11-27T07:03:28.812Z,102325.09
2022-11-27T07:05:58.047Z,102331.63
2022-11-27T07:08:24.574Z,102328.97
2022-11-27T07:10:51.032Z,102326.47
2022-11-27T07:13:17.447Z,102321.38
2022-11-27T07:15:44.159Z,102325.03
2022-11-27T07:18:11.399Z,102311.00
2022-11-27T07:20:37.874Z,102307.56
2022-11-27T07:23:04.324Z,102309.50
2022-11-27T07:25:30.831Z,102305.28
2022-11-27T07:27:57.254Z,102309.72
2022-11-27T07:30:23.784Z,102321.22
2022-11-27T07:32:50.177Z,102324.72
2022-11-27T07:35:16.715Z,102315.00
2022-11-27T07:37:43.130Z,102307.94
2022-11-27T07:40:09.785Z,102314.88
2022-11-27T07:42:41.481Z,102298.13
2022-11-27T07:45:08.911Z,102293.63
2022-11-27T07:47:35.367Z,102291.84
2022-11-27T07:50:01.920Z,102283.00
2022-11-27T07:52:28.346Z,102279.41
2022-11-27T07:54:54.935Z,102276.66
2022-11-27T07:57:21.363Z,102277.47
2022-11-27T07:59:48.022Z,102280.91
2022-11-27T08:02:14.945Z,102282.56
2022-11-27T08:04:41.769Z,102280.69
2022-11-27T08:07:08.651Z,102273.53
2022-11-27T08:09:35.234Z,102278.69
2022-11-27T08:12:01.693Z,102273.25
2022-11-27T08:14:28.159Z,102269.91
2022-11-27T08:16:54.812Z,102272.09
2022-11-27T08:19:21.684Z,102278.97
2022-11-27T08:21:48.158Z,102260.50
2022-11-27T08:24:14.608Z,102272.38
2022-11-27T08:26:41.051Z,102271.09
2022-11-27T08:29:07.694Z,102265.47
2022-11-27T08:31:34.546Z,102266.06
2022-11-27T08:34:02.190Z,102257.72
2022-11-27T08:36:28.762Z,102253.84
2022-11-27T08:38:55.988Z,102238.66
2022-11-27T08:41:22.493Z,102238.31
2022-11-27T08:43:49.252Z,102232.03
2022-11-27T08:46:15.985Z,102222.16
2022-11-27T08:48:42.486Z,102232.50
2022-11-27T08:51:12.382Z,102239.53
2022-11-27T08:53:39.209Z,102247.31
2022-11-27T08:56:11.740Z,102237.44
2022-11-27T08:58:38.265Z,102232.91
2022-11-27T09:01:15.583Z,102225.03
2022-11-27T09:03:42.199Z,102234.38
2022-11-27T09:06:10.821Z,102221.13
2022-11-27T09:08:39.070Z,102233.13
2022-11-27T09:11:06.326Z,102224.09
2022-11-27T09:13:36.658Z,102229.13
2022-11-27T09:16:08.648Z,102243.88
2022-11-27T09:18:35.279Z,102250.75
2022-11-27T09:21:04.732Z,102241.69
2022-11-27T09:23:31.785Z,102238.94
2022-11-27T09:26:00.139Z,102241.44
2022-11-27T09:28:31.407Z,102228.19
2022-11-27T09:31:00.644Z,102226.38
2022-11-27T09:33:29.310Z,102208.91
2022-11-27T09:35:55.949Z,102200.13
2022-11-27T09:38:23.792Z,102191.22
2022-11-27T09:40:52.251Z,102183.03
2022-11-27T09:43:28.448Z,102172.41
2022-11-27T09:46:01.384Z,102178.44
2022-11-27T09:48:35.935Z,102172.97
2022-11-27T09:51:10.006Z,102167.47
2022-11-27T09:53:55.890Z,102166.09
2022-11-27T09:56:23.029Z,102152.66
2022-11-27T09:58:57.324Z,102154.59
2022-11-27T10:01:42.082Z,102155.94
2022-11-27T10:04:13.863Z,102165.03
2022-11-27T10:06:52.315Z,102172.16
2022-11-27T10:10:00.109Z,102178.41
2022-11-27T10:13:04.844Z,102181.22
2022-11-27T10:15:46.524Z,102175.31
2022-11-27T10:18:38.898Z,102176.34
2022-11-27T10:21:37.271Z,102187.66
2022-11-27T10:24:25.692Z,102177.41
2022-11-27T10:26:58.022Z,102167.13
2022-11-27T10:29:47.223Z,102163.19
2022-11-27T10:32:47.231Z,102162.50
2022-11-27T10:35:13.651Z,102159.75
2022-11-27T10:37:47.121Z,102170.38
2022-11-27T10:40:13.708Z,102165.38
2022-11-27T10:43:15.250Z,102164.75
2022-11-27T10:45:46.284Z,102165.44
2022-11-27T10:48:14.376Z,102168.84
2022-11-27T10:50:42.425Z,102172.75
2022-11-27T10:53:14.814Z,102167.88
2022-11-27T10:56:05.965Z,102158.38
2022-11-27T10:58:42.680Z,102158.22
2022-11-27T11:01:11.758Z,102158.72
2022-11-27T11:03:38.321Z,102156.59
2022-11-27T11:06:20.669Z,102153.59
2022-11-27T11:08:48.097Z,102149.03
2022-11-27T11:11:25.819Z,102146.75
2022-11-27T11:13:52.682Z,102139.63
2022-11-27T11:16:29.430Z,102132.25
2022-11-27T11:18:58.787Z,102128.31
2022-11-27T11:21:29.748Z,102123.59
2022-11-27T11:23:59.947Z,102124.09
2022-11-27T11:26:31.633Z,102125.06
2022-11-27T11:29:02.316Z,102121.88
2022-11-27T11:31:36.880Z,102120.75
2022-11-27T11:34:12.580Z,102110.88
2022-11-27T11:36:38.985Z,102109.84
2022-11-27T11:39:05.467Z,102111.31
2022-11-27T11:41:38.711Z,102102.19
2022-11-27T11:44:05.377Z,102094.22
2022-11-27T11:46:33.741Z,102087.28
2022-11-27T11:49:03.244Z,102098.50
2022-11-27T11:51:32.881Z,102087.00
2022-11-27T11:54:34.290Z,102084.16
2022-11-27T11:57:03.083Z,102084.06
2022-11-27T11:59:55.056Z,102074.16
2022-11-27T12:02:53.454Z,102075.25
2022-11-27T12:05:41.222Z,102062.06
2022-11-27T12:08:29.458Z,102066.13
2022-11-27T12:11:18.378Z,102057.63
2022-11-27T12:14:08.110Z,102056.00
2022-11-27T12:16:49.241Z,102062.84
2022-11-27T12:19:58.031Z,102056.19
2022-11-27T12:23:06.023Z,102058.63
2022-11-27T12:26:13.880Z,102053.19
2022-11-27T12:28:57.503Z,102052.34
2022-11-27T12:31:25.649Z,102048.72
2022-11-27T12:34:07.020Z,102048.63
2022-11-27T12:36:39.925Z,102037.78
2022-11-27T12:39:32.537Z,102037.47
2022-11-27T12:42:04.269Z,102022.94
2022-11-27T12:45:14.632Z,102024.25
2022-11-27T12:47:42.397Z,102018.28
2022-11-27T12:50:25.784Z,102012.00
2022-11-27T12:53:27.389Z,102010.38
2022-11-27T12:56:29.715Z,102007.72
2022-11-27T12:59:29.879Z,102007.81
2022-11-27T13:02:13.346Z,101990.56
2022-11-27T13:04:47.068Z,101997.28
2022-11-27T13:07:59.931Z,101999.84
2022-11-27T13:10:41.001Z,102001.84
2022-11-27T13:13:19.474Z,101998.56
2022-11-27T13:15:52.252Z,101997.63
2022-11-27T13:18:36.693Z,101985.25
2022-11-27T13:21:10.680Z,101987.91
2022-11-27T13:23:37.249Z,101990.88
2022-11-27T13:26:07.241Z,101978.72
2022-11-27T13:28:47.477Z,101984.31
2022-11-27T13:31:25.788Z,101979.19
2022-11-27T13:33:59.626Z,101973.75
2022-11-27T13:36:38.895Z,101965.88
2022-11-27T13:39:06.360Z,101949.66
2022-11-27T13:41:34.745Z,101958.94
2022-11-27T13:44:02.604Z,101950.41
2022-11-27T13:46:31.742Z,101959.88
2022-11-27T13:49:02.763Z,101954.56
2022-11-27T13:51:35.191Z,101965.97
2022-11-27T13:54:10.784Z,101946.78
2022-11-27T13:56:37.841Z,101942.41
2022-11-27T13:59:23.834Z,101945.81
2022-11-27T14:02:09.078Z,101940.50
2022-11-27T14:04:50.624Z,101931.16
2022-11-27T14:07:21.404Z,101913.66
2022-11-27T14:09:56.374Z,101929.19
2022-11-27T14:12:28.027Z,101932.81
2022-11-27T14:15:17.469Z,101929.94
2022-11-27T14:17:46.326Z,101924.81
2022-11-27T14:20:15.873Z,101924.81
2022-11-27T14:23:10.577Z,101917.94
2022-11-27T14:25:38.901Z,101927.72
2022-11-27T14:28:26.255Z,101925.81
2022-11-27T14:31:02.343Z,101929.44
2022-11-27T14:33:33.177Z,101926.88
2022-11-27T14:36:07.466Z,101927.19
2022-11-27T14:38:35.350Z,101926.22
2022-11-27T14:41:22.706Z,101923.56
2022-11-27T14:44:14.711Z,101922.72
2022-11-27T14:46:41.760Z,101919.28
2022-11-27T14:49:18.436Z,101918.44
2022-11-27T14:51:45.616Z,101915.88
2022-11-27T14:54:17.034Z,101907.66
2022-11-27T14:56:44.485Z,101903.00
2022-11-27T14:59:16.227Z,101895.03
2022-11-27T15:01:43.053Z,101909.47
2022-11-27T15:04:34.740Z,101904.91
2022-11-27T15:07:05.164Z,101891.16
2022-11-27T15:09:34.234Z,101891.25
2022-11-27T15:12:34.569Z,101890.31
2022-11-27T15:15:30.460Z,101888.94
2022-11-27T15:18:01.654Z,101886.25
2022-11-27T15:20:37.229Z,101878.38
2022-11-27T15:23:04.632Z,101879.53
2022-11-27T15:25:38.740Z,101877.72
2022-11-27T15:28:23.527Z,101868.78
2022-11-27T15:30:50.358Z,101871.84
2022-11-27T15:33:37.029Z,101875.94
2022-11-27T15:36:21.919Z,101868.91
2022-11-27T15:38:51.139Z,101866.53
2022-11-27T15:41:26.510Z,101861.31
2022-11-27T15:43:54.149Z,101861.97
2022-11-27T15:46:34.323Z,101854.84
2022-11-27T15:49:00.716Z,101848.56
2022-11-27T15:51:27.172Z,101850.28
2022-11-27T15:53:53.572Z,101839.84
2022-11-27T15:56:20.730Z,101844.00
2022-11-27T15:58:47.248Z,101833.66
2022-11-27T16:01:13.708Z,101843.06
2022-11-27T16:03:40.703Z,101847.50
2022-11-27T16:06:08.562Z,101842.09
2022-11-27T16:08:35.165Z,101840.28
2022-11-27T16:11:03.587Z,101833.16
2022-11-27T16:13:30.088Z,101822.06
2022-11-27T16:16:02.007Z,101818.34
2022-11-27T16:18:28.885Z,101831.25
2022-11-27T16:20:55.715Z,101811.34
2022-11-27T16:23:22.164Z,101820.47
2022-11-27T16:25:48.643Z,101818.66
2022-11-27T16:28:15.161Z,101814.44
2022-11-27T16:30:41.796Z,101820.28
2022-11-27T16:33:08.265Z,101819.41
2022-11-27T16:35:36.435Z,101807.94
2022-11-27T16:38:02.924Z,101812.19
2022-11-27T16:40:29.596Z,101812.28
2022-11-27T16:42:56.039Z,101803.47
2022-11-27T16:45:22.535Z,101784.63
2022-11-27T16:47:49.141Z,101792.81
2022-11-27T16:50:15.658Z,101790.41
2022-11-27T16:52:42.118Z,101789.41
2022-11-27T16:55:08.949Z,101787.59
2022-11-27T16:57:35.371Z,101784.22
2022-11-27T17:00:02.198Z,101778.34
2022-11-27T17:02:28.853Z,101794.13
2022-11-27T17:04:55.975Z,101789.84
2022-11-27T17:07:22.489Z,101783.78
2022-11-27T17:09:49.221Z,101782.06
2022-11-27T17:12:15.969Z,101791.66
2022-11-27T17:14:43.770Z,101784.84
2022-11-27T17:17:12.966Z,101783.13
2022-11-27T17:19:39.966Z,101783.13
2022-11-27T17:22:06.784Z,101777.81
2022-11-27T17:24:35.759Z,101767.59
2022-11-27T17:27:02.747Z,101781.41
2022-11-27T17:29:33.466Z,101771.22
2022-11-27T17:32:00.515Z,101776.19
2022-11-27T17:34:27.049Z,101767.50
2022-11-27T17:36:57.312Z,101765.06
2022-11-27T17:39:23.617Z,101763.25
2022-11-27T17:41:50.147Z,101757.81
2022-11-27T17:44:16.549Z,101756.31
2022-11-27T17:46:48.029Z,101746.16
2022-11-27T17:49:14.442Z,101747.66
2022-11-27T17:51:41.314Z,101730.53
2022-11-27T17:54:07.793Z,101734.66
2022-11-27T17:56:34.932Z,101735.53
2022-11-27T17:59:01.855Z,101718.09
2022-11-27T18:01:29.649Z,101719.81
2022-11-27T18:03:59.770Z,101702.44
2022-11-27T18:06:26.663Z,101675.22
2022-11-27T18:08:55.193Z,101694.28
2022-11-27T18:11:23.481Z,101688.22
2022-11-27T18:13:50.492Z,101666.09
2022-11-27T18:16:19.788Z,101686.50
2022-11-27T18:18:47.334Z,101672.75
2022-11-27T18:21:18.741Z,101685.75
2022-11-27T18:24:20.659Z,101677.13
2022-11-27T18:27:00.566Z,101675.31
2022-11-27T18:29:21.760Z,101669.91
2022-11-27T18:31:49.297Z,101665.53
2022-11-27T18:34:15.757Z,101658.63
2022-11-27T18:36:42.165Z,101664.69
2022-11-27T18:39:08.557Z,101670.97
2022-11-27T18:41:35.102Z,101677.13
2022-11-27T18:44:01.712Z,101670.97
2022-11-27T18:46:28.361Z,101667.44
2022-11-27T18:48:54.922Z,101671.19
2022-11-27T18:51:23.917Z,101672.16
2022-11-27T18:53:51.459Z,101674.81
2022-11-27T18:56:29.330Z,101678.41
2022-11-27T18:58:56.500Z,101668.63
2022-11-27T19:01:28.663Z,101674.81
2022-11-27T19:03:56.240Z,101671.31
2022-11-27T19:06:24.921Z,101680.13
2022-11-27T19:08:52.182Z,101672.25
2022-11-27T19:11:22.306Z,101663.22
2022-11-27T19:13:52.193Z,101659.06
2022-11-27T19:16:25.036Z,101655.34
2022-11-27T19:18:52.450Z,101653.75
2022-11-27T19:21:21.853Z,101643.88
2022-11-27T19:23:49.557Z,101644.72
2022-11-27T19:26:18.925Z,101617.81
2022-11-27T19:28:48.999Z,101619.00
2022-11-27T19:31:16.330Z,101619.00
2022-11-27T19:33:43.580Z,101626.97
2022-11-27T19:36:13.525Z,101605.91
2022-11-27T19:38:42.347Z,101611.72
2022-11-27T19:41:14.311Z,101602.69
2022-11-27T19:43:41.018Z,101596.53
2022-11-27T19:46:27.262Z,101597.16
2022-11-27T19:48:58.649Z,101586.75
2022-11-27T19:51:27.149Z,101605.56
2022-11-27T19:53:53.970Z,101613.31
2022-11-27T19:56:20.695Z,101614.28
2022-11-27T19:58:47.208Z,101607.16
2022-11-27T20:01:16.413Z,101604.41
2022-11-27T20:03:43.614Z,101605.34
2022-11-27T20:06:15.388Z,101597.38
2022-11-27T20:08:42.960Z,101590.34
2022-11-27T20:11:12.239Z,101593.88
2022-11-27T20:13:38.710Z,101588.44
2022-11-27T20:16:14.662Z,101591.94
2022-11-27T20:18:41.643Z,101590.25
2022-11-27T20:21:17.078Z,101577.72
2022-11-27T20:23:44.749Z,101583.97
2022-11-27T20:26:14.893Z,101570.69
2022-11-27T20:28:41.816Z,101568.59
2022-11-27T20:31:17.246Z,101578.66
2022-11-27T20:33:43.757Z,101563.66
2022-11-27T20:36:12.284Z,101576.09
2022-11-27T20:38:39.487Z,101570.69
2022-11-27T20:41:12.135Z,101576.00
2022-11-27T20:43:39.113Z,101568.88
2022-11-27T20:46:07.586Z,101574.19
2022-11-27T20:48:34.122Z,101572.38
2022-11-27T20:51:13.697Z,101567.81
2022-11-27T20:53:40.907Z,101568.78
2022-11-27T20:56:09.115Z,101568.03
2022-11-27T20:58:37.031Z,101570.69
2022-11-27T21:01:13.914Z,101571.53
2022-11-27T21:03:41.003Z,101562.94
2022-11-27T21:06:07.733Z,101553.13
2022-11-27T21:08:34.311Z,101553.88
2022-11-27T21:11:09.699Z,101567.94
2022-11-27T21:13:36.511Z,101561.88
2022-11-27T21:16:03.033Z,101554.84
2022-11-27T21:18:29.499Z,101557.41
2022-11-27T21:20:55.892Z,101559.09
2022-11-27T21:23:22.331Z,101554.63
2022-11-27T21:25:48.869Z,101549.31
2022-11-27T21:28:15.261Z,101545.81
2022-11-27T21:30:41.652Z,101542.50
2022-11-27T21:33:08.078Z,101538.69
2022-11-27T21:35:39.103Z,101543.25
2022-11-27T21:38:07.994Z,101533.56
2022-11-27T21:40:36.741Z,101535.06
2022-11-27T21:43:03.272Z,101540.38
2022-11-27T21:45:29.709Z,101519.69
2022-11-27T21:47:56.289Z,101530.59
2022-11-27T21:50:22.721Z,101524.53
2022-11-27T21:52:49.155Z,101522.84
2022-11-27T21:55:15.603Z,101500.94
2022-11-27T21:57:42.049Z,101519.00
2022-11-27T22:00:09.005Z,101524.31
2022-11-27T22:02:35.514Z,101528.78
2022-11-27T22:05:01.987Z,101520.72
2022-11-27T22:07:28.467Z,101513.91
2022-11-27T22:09:55.192Z,101506.88
2022-11-27T22:12:21.629Z,101503.81
2022-11-27T22:14:50.201Z,101508.28
2022-11-27T22:17:17.083Z,101506.47
2022-11-27T22:19:43.552Z,101495.81
2022-11-27T22:22:10.052Z,101502.00
2022-11-27T22:24:36.751Z,101489.56
2022-11-27T22:27:03.261Z,101483.28
2022-11-27T22:29:29.760Z,101468.28
2022-11-27T22:31:56.203Z,101457.00
2022-11-27T22:34:22.644Z,101475.31
2022-11-27T22:36:49.105Z,101458.72
2022-11-27T22:39:15.626Z,101456.56
2022-11-27T22:41:42.816Z,101448.59
2022-11-27T22:44:14.031Z,101457.19
2022-11-27T22:46:42.304Z,101454.53
2022-11-27T22:49:12.334Z,101442.94
2022-11-27T22:51:39.255Z,101444.63
2022-11-27T22:54:07.854Z,101442.81
2022-11-27T22:56:34.263Z,101419.09
2022-11-27T22:59:30.505Z,101437.50
2022-11-27T23:01:48.521Z,101403.03
2022-11-27T23:04:15.475Z,101401.91
2022-11-27T23:06:41.951Z,101392.63
2022-11-27T23:09:09.656Z,101390.97
2022-11-27T23:11:36.071Z,101436.03
2022-11-27T23:14:03.317Z,101433.19
2022-11-27T23:16:29.824Z,101427.72
2022-11-27T23:18:56.281Z,101437.50
2022-11-27T23:21:24.705Z,101421.47
2022-11-27T23:23:51.778Z,101419.56
2022-11-27T23:26:20.365Z,101405.81
2022-11-27T23:28:48.981Z,101418.59
2022-11-27T23:31:34.078Z,101410.63
2022-11-27T23:34:03.079Z,101403.38
2022-11-27T23:36:31.353Z,101378.03
2022-11-27T23:39:01.958Z,101380.63
2022-11-27T23:41:29.191Z,101398.91
2022-11-27T23:43:56.285Z,101394.53
2022-11-27T23:46:28.316Z,101381.25
2022-11-27T23:48:56.776Z,101393.47
2022-11-27T23:51:26.197Z,101383.81
2022-11-27T23:53:53.616Z,101394.19
2022-11-27T23:56:23.165Z,101391.53
2022-11-27T23:58:49.974Z,101387.19
